Time;durP1;ratioP1;P1;durP2;ratioP2;P2;SDS_P1;SDS_P2;PMS_P1;PMS_P2;Temp;Humidity;BMP_temperature;BMP_pressure;BME280_temperature;BME280_humidity;BME280_pressure;Samples;Min_cycle;Max_cycle;Signal;HPM_P1;HPM_P2
2022/05/04 03:04:30;;;;;;;2.13;1.92;;;21.50;48.50;;;;;;4920993;28;45289;-60
2022/05/04 03:06:56;;;;;;;2.47;2.28;;;21.50;48.50;;;;;;4954722;28;45340;-61
2022/05/04 03:09:21;;;;;;;2.17;1.98;;;21.50;48.40;;;;;;4946429;28;45351;-60
2022/05/04 03:11:56;;;;;;;2.47;2.28;;;21.50;48.40;;;;;;4948750;28;45508;-60
2022/05/04 03:14:23;;;;;;;2.33;2.13;;;21.50;48.40;;;;;;4943817;28;47070;-59
2022/05/04 03:16:49;;;;;;;2.78;2.13;;;21.50;48.40;;;;;;4950630;28;45409;-60
2022/05/04 03:19:15;;;;;;;2.38;2.17;;;21.50;48.50;;;;;;4927145;28;45569;-61
2022/05/04 03:21:41;;;;;;;2.10;2.00;;;21.50;48.40;;;;;;4949827;28;45439;-59
2022/05/04 03:24:07;;;;;;;2.20;2.10;;;21.50;48.50;;;;;;4917414;28;45234;-60
2022/05/04 03:26:33;;;;;;;2.25;2.05;;;21.50;48.50;;;;;;4952950;28;45451;-60
2022/05/04 03:28:58;;;;;;;2.35;2.15;;;21.50;48.40;;;;;;4941462;28;45304;-61
2022/05/04 03:31:24;;;;;;;2.55;2.35;;;21.50;48.50;;;;;;4913899;28;45959;-60
2022/05/04 03:33:50;;;;;;;2.35;2.15;;;21.50;48.50;;;;;;4954894;28;46120;-64
2022/05/04 03:36:16;;;;;;;1.95;1.85;;;21.50;48.50;;;;;;4932067;28;45215;-59
2022/05/04 03:38:41;;;;;;;2.65;2.15;;;21.50;48.50;;;;;;4945583;28;45462;-60
2022/05/04 03:41:07;;;;;;;2.40;2.20;;;21.50;48.50;;;;;;4947455;28;45318;-61
2022/05/04 03:43:33;;;;;;;2.47;2.10;;;21.40;48.40;;;;;;4920347;28;47673;-60
2022/05/04 03:46:12;;;;;;;3.35;2.13;;;21.40;48.40;;;;;;4950202;28;45137;-59
2022/05/04 03:48:37;;;;;;;2.28;2.08;;;21.50;48.50;;;;;;4938698;28;45254;-59
2022/05/04 03:51:03;;;;;;;2.00;1.90;;;21.40;48.40;;;;;;4957595;28;45188;-61
2022/05/04 03:53:28;;;;;;;2.42;2.20;;;21.40;48.40;;;;;;4935333;28;45581;-60
2022/05/04 03:55:54;;;;;;;2.38;2.17;;;21.40;48.40;;;;;;4950097;28;45583;-61
2022/05/04 03:58:20;;;;;;;2.20;2.00;;;21.40;48.40;;;;;;4951861;28;44836;-60
2022/05/04 04:00:45;;;;;;;2.13;2.00;;;21.40;48.40;;;;;;4943541;28;44853;-61
2022/05/04 04:03:11;;;;;;;2.10;1.95;;;21.40;48.40;;;;;;4954406;28;45595;-60
2022/05/04 04:05:36;;;;;;;2.63;2.42;;;21.40;48.40;;;;;;4961243;28;45298;-59
2022/05/04 04:08:02;;;;;;;1.85;1.75;;;21.40;48.40;;;;;;4953379;28;45351;-60
2022/05/04 04:10:27;;;;;;;2.38;2.17;;;21.40;48.40;;;;;;4936579;28;45388;-58
2022/05/04 04:12:53;;;;;;;2.53;2.25;;;21.40;48.50;;;;;;4942548;28;46606;-60
2022/05/04 04:15:18;;;;;;;2.17;2.03;;;21.40;48.40;;;;;;4956242;28;45377;-60
2022/05/04 04:17:44;;;;;;;2.72;2.25;;;21.40;48.40;;;;;;4951871;28;45299;-59
2022/05/04 04:22:54;;;;;;;2.78;2.00;;;21.40;48.40;;;;;;4949610;28;45370;-61
2022/05/04 04:25:20;;;;;;;2.97;2.13;;;21.40;48.40;;;;;;4935719;28;44835;-61
2022/05/04 04:27:45;;;;;;;2.47;2.28;;;21.40;48.40;;;;;;4915874;28;45943;-60
2022/05/04 04:30:12;;;;;;;2.40;2.20;;;21.40;48.40;;;;;;4950630;28;44713;-60
2022/05/04 04:32:38;;;;;;;2.72;2.53;;;21.40;48.40;;;;;;4939341;28;45672;-60
2022/05/04 04:35:04;;;;;;;2.55;2.35;;;21.40;48.40;;;;;;4951552;28;45553;-58
2022/05/04 04:37:29;;;;;;;2.25;2.05;;;21.40;48.40;;;;;;4932127;28;45463;-61
2022/05/04 04:39:55;;;;;;;2.40;2.03;;;21.40;48.40;;;;;;4957964;28;45461;-60
2022/05/04 04:42:21;;;;;;;2.70;2.50;;;21.40;48.40;;;;;;4935520;28;46461;-61
2022/05/04 04:44:46;;;;;;;2.42;2.22;;;21.40;48.40;;;;;;4937549;28;45325;-60
2022/05/04 04:47:12;;;;;;;2.45;2.25;;;21.40;48.40;;;;;;4954306;28;45221;-61
2022/05/04 04:49:37;;;;;;;2.90;2.70;;;21.30;48.40;;;;;;4934903;28;45202;-60
2022/05/04 04:52:03;;;;;;;2.30;2.10;;;21.40;48.40;;;;;;4942508;28;46430;-61
2022/05/04 04:54:29;;;;;;;2.50;2.30;;;21.40;48.50;;;;;;4931455;28;45129;-58
2022/05/04 04:56:54;;;;;;;3.50;2.28;;;21.40;48.40;;;;;;4953988;28;45236;-61
2022/05/04 04:59:20;;;;;;;2.08;1.92;;;21.40;48.40;;;;;;4940250;28;44770;-61
2022/05/04 05:01:46;;;;;;;2.40;2.20;;;21.40;48.40;;;;;;4960888;28;45952;-60
2022/05/04 05:04:11;;;;;;;2.80;2.38;;;21.40;48.40;;;;;;4943694;28;44749;-61
2022/05/04 05:06:37;;;;;;;2.50;2.30;;;21.40;48.40;;;;;;4937560;28;45107;-59
2022/05/04 05:09:02;;;;;;;2.13;1.92;;;21.30;48.40;;;;;;4952524;28;45125;-61
2022/05/04 05:11:28;;;;;;;2.50;2.30;;;21.40;48.40;;;;;;4934953;28;47219;-61
2022/05/04 05:16:39;;;;;;;2.92;2.10;;;21.40;48.40;;;;;;4949647;28;45144;-61
2022/05/04 05:19:04;;;;;;;1.95;1.83;;;21.40;48.50;;;;;;4939559;28;45494;-60
2022/05/04 05:21:30;;;;;;;2.63;2.42;;;21.40;48.40;;;;;;4921276;28;45453;-59
2022/05/04 05:23:55;;;;;;;2.47;2.28;;;21.40;48.30;;;;;;4932887;28;45148;-61
2022/05/04 05:26:21;;;;;;;2.40;2.20;;;21.40;48.20;;;;;;4933899;28;45384;-60
2022/05/04 05:28:47;;;;;;;2.70;2.50;;;21.50;48.30;;;;;;4954147;28;44785;-61
2022/05/04 05:31:13;;;;;;;2.70;2.50;;;21.50;48.20;;;;;;4938458;28;45534;-61
2022/05/04 05:33:39;;;;;;;3.15;2.40;;;21.50;48.20;;;;;;4937913;28;44731;-60
2022/05/04 05:36:05;;;;;;;2.88;2.67;;;21.50;48.10;;;;;;4957567;28;44897;-60
2022/05/04 05:38:31;;;;;;;3.13;2.40;;;21.50;48.10;;;;;;4955327;28;45246;-60
2022/05/04 05:40:57;;;;;;;2.13;2.03;;;21.50;48.10;;;;;;4946668;28;46246;-60
2022/05/04 05:43:22;;;;;;;2.25;2.05;;;21.50;48.10;;;;;;4940607;28;45098;-61
2022/05/04 05:45:48;;;;;;;2.25;2.13;;;21.50;48.10;;;;;;4953563;28;44755;-62
2022/05/04 05:48:13;;;;;;;2.50;2.30;;;21.50;48.20;;;;;;4955422;28;44713;-58
2022/05/04 05:50:39;;;;;;;3.60;2.65;;;21.50;48.20;;;;;;4950763;28;45582;-61
2022/05/04 05:53:05;;;;;;;2.50;2.30;;;21.50;48.10;;;;;;4955951;28;45422;-60
2022/05/04 05:55:31;;;;;;;3.33;2.42;;;21.50;48.10;;;;;;4934632;28;45207;-60
2022/05/04 05:57:56;;;;;;;5.15;2.50;;;21.60;48.10;;;;;;4914107;28;45560;-62
2022/05/04 06:00:22;;;;;;;3.00;2.30;;;21.50;48.10;;;;;;4951768;28;46276;-60
2022/05/04 06:02:47;;;;;;;2.50;2.30;;;21.60;48.10;;;;;;4941458;28;45460;-59
2022/05/04 06:05:13;;;;;;;2.35;2.15;;;21.60;48.00;;;;;;4936171;28;45100;-62
2022/05/04 06:07:39;;;;;;;2.72;2.53;;;21.60;48.00;;;;;;4950286;28;45268;-61
2022/05/04 06:10:05;;;;;;;2.70;2.50;;;21.70;48.00;;;;;;4947406;28;46152;-62
2022/05/04 06:12:31;;;;;;;2.55;2.35;;;21.70;47.90;;;;;;4950203;28;45127;-61
2022/05/04 06:14:57;;;;;;;2.83;2.50;;;21.70;48.00;;;;;;4940486;28;45155;-61
2022/05/04 06:17:22;;;;;;;2.88;2.67;;;21.70;47.90;;;;;;4937412;28;44728;-60
2022/05/04 06:19:48;;;;;;;2.50;2.30;;;21.70;48.00;;;;;;4949818;28;46347;-61
2022/05/04 06:22:14;;;;;;;2.83;2.38;;;21.80;47.90;;;;;;4950040;28;45695;-62
2022/05/04 06:24:39;;;;;;;2.63;2.25;;;21.80;47.80;;;;;;4953096;28;45148;-62
2022/05/04 06:27:05;;;;;;;2.80;2.45;;;21.90;48.30;;;;;;4919825;28;45402;-62
2022/05/04 06:35:05;;;;;;;2.58;2.38;;;22.00;47.70;;;;;;4934629;28;45468;-61
2022/05/04 06:37:31;;;;;;;2.45;2.25;;;22.00;47.60;;;;;;4903517;28;45578;-60
2022/05/04 06:39:56;;;;;;;3.72;2.55;;;22.10;47.60;;;;;;4933286;28;45195;-61
2022/05/04 06:42:22;;;;;;;3.08;2.30;;;22.00;47.60;;;;;;4935544;28;44880;-61
2022/05/04 06:44:48;;;;;;;2.45;2.25;;;22.10;47.70;;;;;;4951303;28;45245;-60
2022/05/04 06:47:13;;;;;;;2.67;2.20;;;22.10;47.80;;;;;;4956129;28;44839;-60
2022/05/04 06:49:39;;;;;;;2.55;2.35;;;22.00;47.80;;;;;;4948798;28;45289;-60
2022/05/04 06:52:05;;;;;;;2.65;1.88;;;22.10;47.80;;;;;;4935021;28;45575;-62
2022/05/04 06:54:31;;;;;;;2.10;1.90;;;22.10;47.90;;;;;;4934067;28;44804;-61
2022/05/04 06:56:57;;;;;;;1.88;1.77;;;22.00;47.90;;;;;;4955029;28;45152;-58
2022/05/04 06:59:23;;;;;;;2.45;2.25;;;22.10;47.90;;;;;;4936208;28;45529;-61
2022/05/04 07:01:48;;;;;;;2.70;2.28;;;22.10;47.90;;;;;;4950886;28;45110;-61
2022/05/04 07:04:14;;;;;;;2.40;2.20;;;22.10;47.90;;;;;;4957197;28;44847;-62
2022/05/04 07:06:40;;;;;;;2.50;2.30;;;22.20;47.90;;;;;;4943411;28;45468;-61
2022/05/04 07:09:05;;;;;;;2.50;2.30;;;22.20;47.90;;;;;;4932040;28;45430;-61
2022/05/04 07:11:31;;;;;;;2.13;2.00;;;22.30;47.80;;;;;;4955901;28;45208;-62
2022/05/04 07:13:57;;;;;;;2.55;2.35;;;22.30;47.90;;;;;;4927108;28;45488;-62
2022/05/04 07:16:23;;;;;;;2.47;2.28;;;22.30;47.80;;;;;;4953246;28;45212;-62
2022/05/04 07:18:49;;;;;;;4.38;2.50;;;22.40;47.90;;;;;;4919778;28;45873;-61
2022/05/04 07:21:14;;;;;;;3.70;2.08;;;22.40;47.90;;;;;;4956309;28;45251;-61
2022/05/04 07:23:40;;;;;;;2.85;2.53;;;22.40;48.00;;;;;;4954818;28;45390;-61
2022/05/04 07:26:06;;;;;;;3.67;2.10;;;22.40;48.00;;;;;;4959500;28;45180;-62
2022/05/04 07:28:31;;;;;;;3.58;2.45;;;22.50;48.00;;;;;;4953992;28;46558;-61
2022/05/04 07:30:57;;;;;;;2.92;2.58;;;22.50;48.00;;;;;;4942585;28;45202;-62
2022/05/04 07:33:22;;;;;;;2.33;2.13;;;22.50;48.00;;;;;;4954139;28;45180;-62
2022/05/04 07:35:48;;;;;;;3.25;2.60;;;22.60;48.00;;;;;;4956263;28;45513;-61
2022/05/04 07:38:14;;;;;;;2.40;2.20;;;22.60;47.90;;;;;;4938072;28;47053;-61
2022/05/04 07:43:23;;;;;;;2.40;2.20;;;22.60;47.90;;;;;;4941309;28;44862;-58
2022/05/04 07:45:49;;;;;;;4.25;2.20;;;22.70;47.80;;;;;;4955615;28;44804;-61
2022/05/04 07:48:14;;;;;;;2.30;2.10;;;22.70;47.80;;;;;;4939475;28;45443;-61
2022/05/04 07:50:40;;;;;;;2.75;2.53;;;22.70;47.80;;;;;;4956690;28;45466;-60
2022/05/04 07:53:06;;;;;;;2.45;2.25;;;22.70;47.80;;;;;;4936441;28;44675;-60
2022/05/04 07:55:31;;;;;;;2.40;2.20;;;22.70;47.80;;;;;;4920327;28;45264;-62
2022/05/04 07:57:57;;;;;;;8.52;2.70;;;22.80;47.80;;;;;;4922951;28;45375;-61
2022/05/04 08:05:52;;;;;;;2.45;2.25;;;22.80;47.70;;;;;;4948827;28;45344;-61
2022/05/04 08:08:17;;;;;;;2.58;1.98;;;22.90;47.70;;;;;;4937409;28;45639;-61
2022/05/04 08:10:43;;;;;;;2.15;1.88;;;22.90;47.70;;;;;;4962252;28;45285;-62
2022/05/04 08:13:08;;;;;;;4.40;2.50;;;22.90;47.70;;;;;;4934447;28;45576;-61
2022/05/04 08:15:34;;;;;;;2.60;2.40;;;22.90;47.70;;;;;;4940139;28;45392;-62
2022/05/04 08:18:01;;;;;;;2.13;1.98;;;22.90;47.70;;;;;;4955221;28;45528;-60
2022/05/04 08:20:28;;;;;;;2.72;2.50;;;22.90;47.70;;;;;;4956471;28;44610;-62
2022/05/04 08:22:54;;;;;;;2.63;2.42;;;23.00;47.70;;;;;;4913215;28;46284;-62
2022/05/04 08:25:19;;;;;;;3.05;2.25;;;23.00;47.70;;;;;;4957888;28;45092;-65
2022/05/04 08:27:45;;;;;;;2.90;2.60;;;23.00;47.70;;;;;;4952558;28;45496;-62
2022/05/04 08:30:11;;;;;;;3.50;2.75;;;23.10;48.30;;;;;;4954446;28;45085;-61
2022/05/04 08:32:36;;;;;;;2.50;2.30;;;23.10;47.60;;;;;;4936790;28;44777;-61
2022/05/04 08:35:02;;;;;;;2.22;2.08;;;23.10;47.60;;;;;;4960649;28;45154;-60
2022/05/04 08:37:28;;;;;;;2.60;2.40;;;23.10;47.60;;;;;;4937719;28;45452;-61
2022/05/04 08:39:54;;;;;;;2.53;2.33;;;23.10;47.60;;;;;;4938656;28;45285;-61
2022/05/04 08:42:20;;;;;;;2.63;2.20;;;23.20;47.60;;;;;;4956933;28;45440;-61
2022/05/04 08:44:48;;;;;;;2.33;2.13;;;23.20;47.60;;;;;;4935660;28;45697;-61
2022/05/04 08:47:14;;;;;;;2.35;2.15;;;23.20;47.50;;;;;;4957061;28;45219;-61
2022/05/04 08:49:41;;;;;;;2.47;2.28;;;23.20;47.60;;;;;;4924718;28;45201;-59
2022/05/04 08:52:07;;;;;;;2.55;2.17;;;23.30;47.50;;;;;;4953805;28;45283;-60
2022/05/04 08:54:33;;;;;;;2.80;2.25;;;23.30;47.50;;;;;;4936856;28;45272;-60
2022/05/04 08:56:59;;;;;;;2.65;2.22;;;23.30;47.50;;;;;;4935205;28;46541;-61
2022/05/04 08:59:25;;;;;;;1.95;1.85;;;23.30;47.50;;;;;;4959070;28;45588;-61
2022/05/04 09:01:51;;;;;;;2.42;2.22;;;23.30;47.50;;;;;;4939234;28;45220;-59
2022/05/04 09:04:17;;;;;;;2.30;1.80;;;23.40;47.50;;;;;;4934229;28;45165;-59
2022/05/04 09:06:43;;;;;;;2.38;2.17;;;23.40;47.50;;;;;;4948970;28;45554;-60
2022/05/04 09:09:10;;;;;;;2.25;2.05;;;23.40;47.50;;;;;;4937206;28;45534;-58
2022/05/04 09:11:40;;;;;;;3.03;2.30;;;23.40;47.50;;;;;;4957988;28;45333;-61
2022/05/04 09:14:15;;;;;;;2.28;2.08;;;23.40;47.40;;;;;;4936636;28;45268;-59
2022/05/04 09:16:41;;;;;;;2.63;2.10;;;23.50;47.40;;;;;;4935666;28;45283;-60
2022/05/04 09:19:11;;;;;;;2.90;2.50;;;23.50;47.40;;;;;;4902759;28;44852;-60
2022/05/04 09:21:37;;;;;;;2.47;2.28;;;23.50;47.40;;;;;;4952515;28;45112;-58
2022/05/04 09:24:05;;;;;;;2.28;2.08;;;23.50;47.40;;;;;;4941973;28;45083;-60
2022/05/04 09:26:31;;;;;;;2.08;1.98;;;23.50;47.40;;;;;;4935272;28;45781;-60
2022/05/04 09:29:01;;;;;;;2.38;2.13;;;23.60;47.40;;;;;;4937670;28;45150;-60
2022/05/04 09:31:27;;;;;;;2.00;1.90;;;23.60;47.40;;;;;;4949851;28;45310;-60
2022/05/04 09:33:54;;;;;;;2.30;2.10;;;23.60;47.40;;;;;;4916140;28;45959;-61
2022/05/04 09:45:15;;;;;;;2.25;2.08;;;23.70;47.30;;;;;;4941328;28;44705;-61
2022/05/04 09:47:45;;;;;;;2.05;1.92;;;23.70;47.30;;;;;;4928596;28;47382;-60
2022/05/04 09:50:11;;;;;;;2.22;2.13;;;23.70;47.30;;;;;;4935788;28;45297;-61
2022/05/04 09:52:41;;;;;;;3.50;2.30;;;23.80;47.40;;;;;;4954557;28;45232;-61
2022/05/04 09:55:34;;;;;;;2.47;1.63;;;23.80;47.30;;;;;;4909124;28;45405;-61
2022/05/04 09:57:59;;;;;;;1.90;1.80;;;23.80;47.30;;;;;;4924567;28;47447;-61
2022/05/04 10:00:25;;;;;;;2.70;1.83;;;23.80;47.30;;;;;;4949200;28;44618;-61
2022/05/04 10:02:52;;;;;;;2.30;2.10;;;23.80;47.30;;;;;;4952629;28;44800;-60
2022/05/04 10:05:19;;;;;;;1.98;1.80;;;23.80;47.20;;;;;;4954692;28;45284;-60
2022/05/04 10:07:47;;;;;;;2.20;2.00;;;23.80;47.20;;;;;;4948664;28;46787;-59
2022/05/04 10:10:21;;;;;;;2.25;2.05;;;23.90;47.20;;;;;;4950029;28;45798;-62
2022/05/04 10:12:46;;;;;;;3.53;2.28;;;23.90;47.30;;;;;;4938098;28;45196;-60
2022/05/04 10:15:14;;;;;;;3.50;1.90;;;23.90;47.20;;;;;;4957114;28;45365;-60
2022/05/04 10:18:04;;;;;;;3.00;2.17;;;23.90;47.10;;;;;;4930599;28;46113;-61
2022/05/04 10:20:42;;;;;;;2.22;1.92;;;23.90;47.10;;;;;;4932915;28;45113;-60
2022/05/04 10:23:20;;;;;;;2.40;1.70;;;23.90;47.10;;;;;;4925540;28;44763;-61
2022/05/04 10:25:45;;;;;;;4.38;2.20;;;23.90;47.10;;;;;;4953522;28;44964;-61
2022/05/04 10:28:12;;;;;;;2.40;2.20;;;23.90;47.10;;;;;;4924149;28;46129;-60
2022/05/04 10:30:52;;;;;;;2.30;2.10;;;23.90;47.10;;;;;;4946576;28;45296;-60
2022/05/04 10:33:19;;;;;;;2.38;2.17;;;24.00;47.10;;;;;;4933769;28;45381;-61
2022/05/04 10:35:50;;;;;;;2.22;2.05;;;23.90;47.10;;;;;;4922394;28;45455;-61
2022/05/04 10:38:34;;;;;;;1.70;1.60;;;23.90;47.00;;;;;;4951419;28;45502;-61
2022/05/04 10:41:00;;;;;;;3.10;2.05;;;24.00;47.10;;;;;;4946897;28;45196;-61
2022/05/04 10:43:37;;;;;;;2.35;2.05;;;23.90;47.10;;;;;;4930710;28;45324;-61
2022/05/04 10:46:21;;;;;;;2.47;2.28;;;24.00;47.10;;;;;;4935465;28;45227;-60
2022/05/04 10:48:58;;;;;;;2.70;2.42;;;24.00;47.10;;;;;;4920720;28;45591;-61
2022/05/04 10:51:29;;;;;;;2.20;2.00;;;24.00;47.10;;;;;;4923198;28;44818;-61
2022/05/04 10:54:08;;;;;;;2.40;2.20;;;24.00;47.10;;;;;;4937164;28;45486;-61
2022/05/04 10:56:40;;;;;;;2.50;2.05;;;24.00;47.10;;;;;;4914551;28;45340;-61
2022/05/04 10:59:06;;;;;;;2.40;2.20;;;24.00;47.10;;;;;;4933823;28;45537;-61
2022/05/04 11:01:36;;;;;;;4.57;2.22;;;24.00;47.10;;;;;;4931536;28;44750;-61
2022/05/04 11:04:10;;;;;;;2.35;2.15;;;24.00;47.00;;;;;;4950859;28;45715;-60
2022/05/04 11:06:37;;;;;;;2.35;2.15;;;24.10;47.00;;;;;;4944758;28;45434;-61
2022/05/04 11:09:07;;;;;;;2.53;2.33;;;24.10;47.10;;;;;;4912759;28;48196;-61
2022/05/04 11:11:33;;;;;;;2.00;1.85;;;24.00;47.00;;;;;;4947377;28;45225;-61
2022/05/04 11:13:59;;;;;;;2.20;1.83;;;24.10;47.00;;;;;;4899685;28;45839;-61
2022/05/04 11:16:25;;;;;;;2.30;2.10;;;24.10;47.10;;;;;;4909558;28;45593;-61
2022/05/04 11:18:51;;;;;;;2.55;2.30;;;24.10;47.10;;;;;;4914359;28;46533;-61
2022/05/04 11:21:18;;;;;;;2.35;2.15;;;24.10;47.00;;;;;;4923555;28;44944;-61
2022/05/04 11:23:51;;;;;;;2.45;2.20;;;24.10;47.00;;;;;;4931599;28;45509;-60
2022/05/04 11:26:21;;;;;;;2.95;2.10;;;24.20;47.00;;;;;;4947384;28;44733;-61
2022/05/04 11:28:47;;;;;;;2.25;2.05;;;24.10;47.00;;;;;;4913248;28;45463;-62
2022/05/04 11:31:12;;;;;;;2.70;2.50;;;24.20;47.10;;;;;;4930115;28;45223;-61
2022/05/04 11:33:41;;;;;;;2.35;2.15;;;24.20;47.10;;;;;;4931106;28;45513;-61
2022/05/04 11:36:06;;;;;;;3.80;2.35;;;24.20;47.10;;;;;;4927285;28;45632;-61
2022/05/04 11:38:32;;;;;;;2.60;2.40;;;24.20;47.10;;;;;;4934568;28;45321;-61
2022/05/04 11:40:58;;;;;;;2.25;2.03;;;24.20;47.10;;;;;;4926121;28;45285;-61
2022/05/04 11:43:27;;;;;;;2.20;2.00;;;24.20;47.00;;;;;;4910507;28;45205;-60
2022/05/04 11:45:56;;;;;;;2.40;2.20;;;24.30;47.10;;;;;;4928085;28;45519;-60
2022/05/04 11:48:22;;;;;;;3.08;2.50;;;24.20;47.00;;;;;;4922560;28;47034;-61
2022/05/04 11:50:48;;;;;;;2.38;2.17;;;24.30;47.00;;;;;;4918588;28;45540;-60
2022/05/04 11:53:14;;;;;;;2.53;2.13;;;24.30;47.00;;;;;;4953148;28;45291;-62
2022/05/04 11:55:40;;;;;;;2.50;2.28;;;24.30;47.00;;;;;;4952061;28;44968;-61
2022/05/04 11:58:13;;;;;;;2.55;2.35;;;24.30;47.10;;;;;;4930201;28;45964;-62
2022/05/04 12:00:42;;;;;;;2.20;2.10;;;24.30;47.10;;;;;;4931907;28;45354;-61
2022/05/04 12:03:08;;;;;;;2.13;1.92;;;24.30;47.10;;;;;;4934326;28;45209;-61
2022/05/04 12:05:34;;;;;;;2.90;2.05;;;24.30;47.10;;;;;;4934746;28;45603;-61
2022/05/04 12:08:00;;;;;;;2.22;2.10;;;24.30;47.10;;;;;;4900841;28;45178;-61
2022/05/04 12:10:27;;;;;;;2.42;2.22;;;24.30;47.10;;;;;;4930406;28;45222;-61
2022/05/04 12:12:53;;;;;;;3.05;2.10;;;24.30;47.20;;;;;;4914350;28;45612;-62
2022/05/04 12:15:22;;;;;;;2.75;2.55;;;24.30;47.20;;;;;;4950981;28;45288;-61
2022/05/04 12:17:47;;;;;;;3.30;1.83;;;24.30;47.30;;;;;;4952043;28;45184;-61
2022/05/04 12:20:13;;;;;;;2.50;2.30;;;24.30;47.30;;;;;;4951169;28;45224;-61
2022/05/04 12:22:39;;;;;;;2.70;2.50;;;24.30;47.30;;;;;;4932372;28;45569;-61
2022/05/04 12:25:05;;;;;;;2.20;2.00;;;24.30;47.30;;;;;;4918864;28;45607;-60
2022/05/04 12:27:32;;;;;;;2.63;2.35;;;24.30;47.30;;;;;;4933071;28;45358;-61
2022/05/04 12:35:30;;;;;;;2.50;2.30;;;24.30;47.40;;;;;;4938229;28;45507;-61
2022/05/04 12:37:57;;;;;;;2.50;2.17;;;24.30;47.40;;;;;;4934290;28;46149;-61
2022/05/04 12:40:23;;;;;;;2.63;2.42;;;24.30;47.50;;;;;;4936532;28;45139;-60
2022/05/04 12:42:49;;;;;;;2.65;2.13;;;24.30;47.40;;;;;;4940124;28;45151;-62
2022/05/04 12:45:17;;;;;;;2.30;2.10;;;24.30;47.40;;;;;;4934430;28;45712;-61
2022/05/04 12:47:44;;;;;;;2.30;2.10;;;24.30;47.50;;;;;;4904286;28;47025;-61
2022/05/04 12:50:12;;;;;;;2.70;2.50;;;24.30;47.50;;;;;;4954940;28;44711;-62
2022/05/04 12:52:38;;;;;;;2.05;1.92;;;24.30;47.50;;;;;;4951649;28;45010;-61
2022/05/04 12:55:05;;;;;;;2.33;1.98;;;24.30;47.60;;;;;;4932340;28;45546;-62
2022/05/04 12:57:30;;;;;;;2.40;2.20;;;24.30;47.60;;;;;;4946650;28;45450;-62
2022/05/04 12:59:56;;;;;;;2.95;2.33;;;24.30;47.60;;;;;;4951991;28;45095;-61
2022/05/04 13:02:22;;;;;;;2.35;1.95;;;24.30;47.60;;;;;;4918925;28;45618;-62
2022/05/04 13:04:48;;;;;;;2.30;1.90;;;24.30;47.70;;;;;;4928470;28;45458;-61
2022/05/04 13:07:13;;;;;;;3.33;2.10;;;24.30;47.60;;;;;;4915143;28;47045;-62
2022/05/04 13:09:41;;;;;;;2.40;2.20;;;24.30;47.60;;;;;;4930207;28;45024;-62
2022/05/04 13:12:11;;;;;;;2.03;1.80;;;24.30;47.70;;;;;;4927915;28;44921;-63
2022/05/04 13:14:38;;;;;;;2.05;1.90;;;24.30;47.70;;;;;;4948716;28;45287;-60
2022/05/04 13:17:07;;;;;;;2.13;1.92;;;24.30;47.80;;;;;;4947246;28;45765;-62
2022/05/04 13:19:33;;;;;;;1.90;1.63;;;24.30;47.70;;;;;;4946390;28;45024;-62
2022/05/04 13:21:58;;;;;;;2.45;1.90;;;24.30;47.70;;;;;;4946553;28;44768;-63
2022/05/04 13:24:24;;;;;;;2.72;2.30;;;24.30;48.30;;;;;;4934611;28;45579;-61
2022/05/04 13:26:50;;;;;;;2.03;1.92;;;24.40;47.70;;;;;;4914410;28;47183;-61
2022/05/04 13:29:15;;;;;;;2.50;2.30;;;24.30;47.70;;;;;;4945526;28;45421;-60
2022/05/04 13:31:41;;;;;;;1.90;1.80;;;24.30;47.70;;;;;;4949295;28;44728;-61
2022/05/04 13:34:06;;;;;;;2.25;1.83;;;24.30;47.80;;;;;;4936859;28;44826;-62
2022/05/04 13:36:32;;;;;;;4.72;1.80;;;24.30;47.70;;;;;;4912580;28;45467;-60
2022/05/04 13:38:58;;;;;;;1.90;1.80;;;24.30;47.80;;;;;;4949689;28;45689;-63
2022/05/04 13:41:23;;;;;;;2.60;1.90;;;24.30;47.80;;;;;;4952385;28;45582;-62
2022/05/04 13:43:49;;;;;;;2.55;2.08;;;24.30;47.80;;;;;;4913857;28;45426;-61
2022/05/04 13:46:17;;;;;;;2.58;2.03;;;24.30;47.80;;;;;;4953151;28;46444;-63
2022/05/04 13:48:44;;;;;;;2.47;2.28;;;24.30;47.80;;;;;;4928320;28;45599;-62
2022/05/04 13:53:54;;;;;;;3.90;1.90;;;24.30;47.80;;;;;;4939740;28;44957;-63
2022/05/04 13:56:20;;;;;;;2.67;2.17;;;24.30;47.90;;;;;;4954611;28;45171;-62
2022/05/04 13:58:45;;;;;;;2.70;2.50;;;24.30;47.90;;;;;;4955449;28;44754;-64
2022/05/04 14:01:11;;;;;;;2.60;1.88;;;24.30;47.90;;;;;;4919161;28;44782;-62
2022/05/04 14:03:36;;;;;;;5.70;2.97;;;24.30;47.90;;;;;;4951844;28;44850;-62
2022/05/04 14:06:04;;;;;;;2.30;1.92;;;24.30;47.90;;;;;;4932945;28;47021;-62
2022/05/04 14:08:29;;;;;;;3.35;2.10;;;24.30;48.00;;;;;;4933329;28;44829;-62
2022/05/04 14:10:57;;;;;;;2.25;1.88;;;24.30;48.00;;;;;;4943492;28;45295;-62
2022/05/04 14:13:27;;;;;;;2.30;2.10;;;24.30;48.00;;;;;;4900029;28;46374;-61
2022/05/04 14:15:59;;;;;;;3.65;2.08;;;24.30;48.00;;;;;;4952602;28;46509;-63
2022/05/04 14:18:31;;;;;;;2.38;2.00;;;24.30;48.10;;;;;;4938527;28;45385;-62
2022/05/04 14:20:58;;;;;;;2.22;2.03;;;24.30;48.10;;;;;;4945943;28;45364;-63
2022/05/04 14:23:24;;;;;;;1.92;1.83;;;24.30;48.10;;;;;;4921949;28;44691;-63
2022/05/04 14:25:49;;;;;;;2.25;1.90;;;24.30;48.10;;;;;;4918548;28;45341;-62
2022/05/04 14:28:15;;;;;;;2.35;2.05;;;24.30;48.20;;;;;;4936765;28;44909;-62
2022/05/04 14:30:41;;;;;;;2.92;2.28;;;24.30;48.10;;;;;;4951533;28;44703;-61
2022/05/04 14:33:07;;;;;;;2.50;2.30;;;24.30;48.10;;;;;;4922399;28;45505;-62
2022/05/04 14:35:33;;;;;;;2.22;2.05;;;24.30;48.10;;;;;;4937160;28;45293;-62
2022/05/04 14:37:59;;;;;;;4.15;1.90;;;24.30;48.20;;;;;;4929872;28;46554;-61
2022/05/04 14:40:25;;;;;;;5.38;2.05;;;24.30;48.20;;;;;;4946253;28;45430;-59
2022/05/04 14:42:56;;;;;;;2.45;2.00;;;24.30;48.20;;;;;;4920674;28;44996;-61
2022/05/04 14:45:22;;;;;;;3.40;2.30;;;24.30;48.30;;;;;;4951715;28;46283;-61
2022/05/04 14:47:50;;;;;;;2.30;2.10;;;24.30;48.30;;;;;;4929886;28;45188;-58
2022/05/04 14:50:16;;;;;;;2.30;2.10;;;24.30;48.30;;;;;;4943286;28;46167;-61
2022/05/04 14:52:42;;;;;;;2.30;2.10;;;24.30;48.30;;;;;;4934597;28;45862;-61
2022/05/04 14:55:08;;;;;;;2.10;1.90;;;24.20;48.30;;;;;;4920600;28;47004;-61
2022/05/04 14:57:33;;;;;;;2.00;1.77;;;24.20;48.30;;;;;;4944831;28;46562;-60
2022/05/04 14:59:59;;;;;;;2.70;1.85;;;24.20;48.40;;;;;;4907081;28;45748;-61
2022/05/04 15:02:25;;;;;;;2.72;1.77;;;24.20;48.40;;;;;;4941412;28;45118;-61
2022/05/04 15:05:03;;;;;;;1.75;1.65;;;24.10;48.50;;;;;;4906903;28;45353;-61
2022/05/04 15:07:29;;;;;;;1.90;1.80;;;24.10;48.50;;;;;;4926648;28;45576;-62
2022/05/04 15:09:55;;;;;;;2.25;2.05;;;24.10;48.50;;;;;;4930446;28;45319;-62
2022/05/04 15:12:20;;;;;;;1.70;1.60;;;24.10;48.50;;;;;;4914527;28;44813;-62
2022/05/04 15:14:46;;;;;;;2.47;1.83;;;24.10;48.60;;;;;;4929346;28;45789;-60
2022/05/04 15:17:12;;;;;;;2.22;2.00;;;24.10;48.60;;;;;;4942911;28;45829;-61
2022/05/04 15:19:37;;;;;;;2.17;1.92;;;24.10;48.60;;;;;;4944119;28;44820;-60
2022/05/04 15:22:03;;;;;;;2.20;1.63;;;24.10;48.60;;;;;;4918858;28;45119;-61
2022/05/04 15:24:29;;;;;;;1.63;1.52;;;24.10;48.60;;;;;;4928313;28;45896;-62
2022/05/04 15:26:55;;;;;;;2.33;1.73;;;24.00;48.60;;;;;;4942027;28;45352;-65
2022/05/04 15:29:21;;;;;;;2.90;1.90;;;24.00;48.60;;;;;;4928425;28;44964;-61
2022/05/04 15:31:49;;;;;;;2.10;2.00;;;24.00;48.60;;;;;;4940258;28;45334;-60
2022/05/04 15:34:16;;;;;;;2.15;1.98;;;24.00;48.60;;;;;;4948960;28;45487;-60
2022/05/04 15:36:42;;;;;;;1.85;1.75;;;24.00;48.60;;;;;;4947425;28;45447;-60
2022/05/04 15:39:08;;;;;;;2.10;1.90;;;24.00;48.60;;;;;;4947254;28;45291;-60
2022/05/04 15:41:34;;;;;;;2.05;1.85;;;24.00;48.60;;;;;;4913708;28;45282;-61
2022/05/04 15:44:00;;;;;;;1.83;1.73;;;24.00;48.70;;;;;;4947414;28;46445;-61
2022/05/04 15:46:25;;;;;;;2.58;2.10;;;24.00;48.70;;;;;;4928668;28;45461;-61
2022/05/04 15:48:54;;;;;;;2.95;2.00;;;24.00;48.60;;;;;;4955488;28;45311;-59
2022/05/04 15:51:20;;;;;;;3.13;2.40;;;24.00;48.60;;;;;;4925922;28;45279;-61
2022/05/04 15:53:47;;;;;;;2.08;1.75;;;24.00;48.60;;;;;;4928225;28;45487;-61
2022/05/04 15:56:13;;;;;;;1.90;1.80;;;24.00;48.60;;;;;;4941238;28;45481;-61
2022/05/04 15:58:39;;;;;;;2.33;1.88;;;24.00;49.30;;;;;;4927681;28;45101;-60
2022/05/04 16:01:04;;;;;;;2.30;2.10;;;24.00;48.70;;;;;;4911676;28;46966;-61
2022/05/04 16:06:14;;;;;;;2.13;1.90;;;23.90;48.70;;;;;;4943504;28;45074;-61
2022/05/04 16:08:40;;;;;;;1.90;1.80;;;23.90;48.70;;;;;;4943220;28;45349;-61
2022/05/04 16:11:05;;;;;;;3.58;2.20;;;23.90;48.70;;;;;;4924862;28;45469;-60
2022/05/04 16:13:31;;;;;;;3.28;2.40;;;23.90;48.70;;;;;;4921814;28;46487;-59
2022/05/04 16:15:57;;;;;;;2.30;2.10;;;23.90;48.70;;;;;;4907958;28;45345;-61
2022/05/04 16:23:50;;;;;;;2.00;1.80;;;23.90;48.70;;;;;;4930366;28;47410;-61
2022/05/04 16:26:18;;;;;;;1.90;1.80;;;23.90;48.70;;;;;;4947588;28;45049;-60
2022/05/04 16:28:44;;;;;;;1.90;1.80;;;23.90;48.70;;;;;;4927054;28;45649;-61
2022/05/04 16:31:10;;;;;;;2.10;1.80;;;23.90;48.80;;;;;;4926603;28;45548;-61
2022/05/04 16:33:35;;;;;;;1.85;1.75;;;23.90;48.80;;;;;;4928438;28;45335;-61